sensor_id;sensor_type;location;lat;lon;timestamp;pressure;altitude;pressure_sealevel;temperature;humidity
57900;BME280;60605;53.716;19.940;2022-07-19T00:01:37;100891.71;;;17.44;100.00
57900;BME280;60605;53.716;19.940;2022-07-19T00:06:41;100896.89;;;17.43;100.00
57900;BME280;60605;53.716;19.940;2022-07-19T00:11:44;100892.10;;;17.42;100.00
57900;BME280;60605;53.716;19.940;2022-07-19T00:16:47;100884.20;;;17.40;100.00
57900;BME280;60605;53.716;19.940;2022-07-19T00:21:51;100884.29;;;17.38;100.00
57900;BME280;60605;53.716;19.940;2022-07-19T00:26:54;100886.60;;;17.35;100.00
57900;BME280;60605;53.716;19.940;2022-07-19T00:31:57;100878.95;;;17.34;100.00
57900;BME280;60605;53.716;19.940;2022-07-19T00:37:00;100882.52;;;17.33;100.00
57900;BME280;60605;53.716;19.940;2022-07-19T00:42:04;100878.90;;;17.33;100.00
57900;BME280;60605;53.716;19.940;2022-07-19T00:47:07;100883.09;;;17.34;100.00
57900;BME280;60605;53.716;19.940;2022-07-19T00:52:13;100876.23;;;17.34;100.00
57900;BME280;60605;53.716;19.940;2022-07-19T00:57:18;100874.98;;;17.34;100.00
57900;BME280;60605;53.716;19.940;2022-07-19T01:02:22;100882.59;;;17.32;100.00
57900;BME280;60605;53.716;19.940;2022-07-19T01:07:27;100881.41;;;17.32;100.00
57900;BME280;60605;53.716;19.940;2022-07-19T01:12:32;100873.05;;;17.31;100.00
57900;BME280;60605;53.716;19.940;2022-07-19T01:17:36;100864.15;;;17.29;100.00
57900;BME280;60605;53.716;19.940;2022-07-19T01:22:41;100856.21;;;17.28;100.00
57900;BME280;60605;53.716;19.940;2022-07-19T01:27:46;100849.98;;;17.27;100.00
57900;BME280;60605;53.716;19.940;2022-07-19T01:32:53;100849.14;;;17.28;100.00
57900;BME280;60605;53.716;19.940;2022-07-19T01:37:56;100848.42;;;17.28;100.00
57900;BME280;60605;53.716;19.940;2022-07-19T01:43:00;100848.90;;;17.27;100.00
57900;BME280;60605;53.716;19.940;2022-07-19T01:48:04;100847.29;;;17.27;100.00
57900;BME280;60605;53.716;19.940;2022-07-19T01:53:08;100847.30;;;17.26;100.00
57900;BME280;60605;53.716;19.940;2022-07-19T01:58:11;100846.23;;;17.24;100.00
57900;BME280;60605;53.716;19.940;2022-07-19T02:03:15;100837.66;;;17.23;100.00
57900;BME280;60605;53.716;19.940;2022-07-19T02:08:19;100844.04;;;17.21;100.00
57900;BME280;60605;53.716;19.940;2022-07-19T02:13:23;100842.68;;;17.19;100.00
57900;BME280;60605;53.716;19.940;2022-07-19T02:18:26;100841.67;;;17.17;100.00
57900;BME280;60605;53.716;19.940;2022-07-19T02:23:29;100838.64;;;17.15;100.00
57900;BME280;60605;53.716;19.940;2022-07-19T02:28:32;100840.65;;;17.13;100.00
57900;BME280;60605;53.716;19.940;2022-07-19T02:33:36;100849.80;;;17.12;100.00
57900;BME280;60605;53.716;19.940;2022-07-19T02:38:39;100848.08;;;17.12;100.00
57900;BME280;60605;53.716;19.940;2022-07-19T02:43:43;100844.94;;;17.11;100.00
57900;BME280;60605;53.716;19.940;2022-07-19T02:48:47;100843.21;;;17.10;100.00
57900;BME280;60605;53.716;19.940;2022-07-19T02:53:55;100839.42;;;17.10;100.00
57900;BME280;60605;53.716;19.940;2022-07-19T02:58:58;100846.98;;;17.09;100.00
57900;BME280;60605;53.716;19.940;2022-07-19T03:04:02;100847.12;;;17.07;100.00
57900;BME280;60605;53.716;19.940;2022-07-19T03:09:05;100851.76;;;17.08;100.00
57900;BME280;60605;53.716;19.940;2022-07-19T03:14:08;100845.09;;;17.08;100.00
57900;BME280;60605;53.716;19.940;2022-07-19T03:19:12;100847.25;;;17.10;100.00
57900;BME280;60605;53.716;19.940;2022-07-19T03:24:15;100836.89;;;17.10;100.00
57900;BME280;60605;53.716;19.940;2022-07-19T03:29:19;100835.69;;;17.16;100.00
57900;BME280;60605;53.716;19.940;2022-07-19T03:34:30;100843.52;;;17.27;100.00
57900;BME280;60605;53.716;19.940;2022-07-19T03:39:34;100847.24;;;17.35;100.00
57900;BME280;60605;53.716;19.940;2022-07-19T03:44:37;100850.38;;;17.39;100.00
57900;BME280;60605;53.716;19.940;2022-07-19T03:49:40;100844.94;;;17.42;100.00
57900;BME280;60605;53.716;19.940;2022-07-19T03:54:44;100845.79;;;17.44;100.00
57900;BME280;60605;53.716;19.940;2022-07-19T03:59:47;100845.95;;;17.46;100.00
57900;BME280;60605;53.716;19.940;2022-07-19T04:04:51;100842.15;;;17.49;100.00
57900;BME280;60605;53.716;19.940;2022-07-19T04:09:54;100838.46;;;17.53;100.00
57900;BME280;60605;53.716;19.940;2022-07-19T04:14:57;100843.13;;;17.58;100.00
57900;BME280;60605;53.716;19.940;2022-07-19T04:20:01;100842.81;;;17.62;100.00
57900;BME280;60605;53.716;19.940;2022-07-19T04:25:05;100845.90;;;17.66;100.00
57900;BME280;60605;53.716;19.940;2022-07-19T04:30:10;100844.64;;;17.73;100.00
57900;BME280;60605;53.716;19.940;2022-07-19T04:35:14;100842.55;;;17.83;100.00
57900;BME280;60605;53.716;19.940;2022-07-19T04:40:19;100844.39;;;17.91;100.00
57900;BME280;60605;53.716;19.940;2022-07-19T04:45:23;100837.63;;;17.99;100.00
57900;BME280;60605;53.716;19.940;2022-07-19T04:50:27;100836.45;;;18.10;100.00
57900;BME280;60605;53.716;19.940;2022-07-19T04:55:30;100836.11;;;18.19;100.00
57900;BME280;60605;53.716;19.940;2022-07-19T05:00:34;100838.67;;;18.24;100.00
57900;BME280;60605;53.716;19.940;2022-07-19T05:05:37;100836.24;;;18.31;100.00
57900;BME280;60605;53.716;19.940;2022-07-19T05:10:41;100834.94;;;18.37;100.00
57900;BME280;60605;53.716;19.940;2022-07-19T05:15:44;100838.88;;;18.48;100.00
57900;BME280;60605;53.716;19.940;2022-07-19T05:20:48;100835.77;;;18.69;100.00
57900;BME280;60605;53.716;19.940;2022-07-19T05:25:51;100834.22;;;19.01;100.00
57900;BME280;60605;53.716;19.940;2022-07-19T05:30:54;100828.77;;;19.43;100.00
57900;BME280;60605;53.716;19.940;2022-07-19T05:35:58;100823.12;;;19.72;99.57
57900;BME280;60605;53.716;19.940;2022-07-19T05:41:02;100817.71;;;19.84;98.11
57900;BME280;60605;53.716;19.940;2022-07-19T05:46:05;100818.46;;;19.88;97.39
57900;BME280;60605;53.716;19.940;2022-07-19T05:51:09;100813.35;;;19.94;96.99
57900;BME280;60605;53.716;19.940;2022-07-19T05:56:12;100811.27;;;20.03;97.02
57900;BME280;60605;53.716;19.940;2022-07-19T06:01:15;100816.79;;;20.13;96.05
57900;BME280;60605;53.716;19.940;2022-07-19T06:06:24;100814.50;;;20.23;95.88
57900;BME280;60605;53.716;19.940;2022-07-19T06:11:28;100812.21;;;20.38;95.54
57900;BME280;60605;53.716;19.940;2022-07-19T06:16:32;100812.40;;;20.54;95.27
57900;BME280;60605;53.716;19.940;2022-07-19T06:21:35;100811.52;;;20.88;94.96
57900;BME280;60605;53.716;19.940;2022-07-19T06:26:39;100813.39;;;21.40;94.46
57900;BME280;60605;53.716;19.940;2022-07-19T06:31:43;100814.39;;;22.16;93.03
57900;BME280;60605;53.716;19.940;2022-07-19T06:36:47;100814.89;;;23.33;90.37
57900;BME280;60605;53.716;19.940;2022-07-19T06:41:50;100818.70;;;24.93;83.44
57900;BME280;60605;53.716;19.940;2022-07-19T06:46:54;100821.74;;;26.82;79.47
57900;BME280;60605;53.716;19.940;2022-07-19T06:51:58;100826.52;;;28.79;68.71
57900;BME280;60605;53.716;19.940;2022-07-19T06:57:01;100829.44;;;30.18;62.70
57900;BME280;60605;53.716;19.940;2022-07-19T07:02:05;100821.98;;;31.87;57.56
57900;BME280;60605;53.716;19.940;2022-07-19T07:07:08;100816.11;;;32.49;51.51
57900;BME280;60605;53.716;19.940;2022-07-19T07:12:12;100814.71;;;33.07;50.28
57900;BME280;60605;53.716;19.940;2022-07-19T07:17:15;100815.58;;;33.71;49.38
57900;BME280;60605;53.716;19.940;2022-07-19T07:22:18;100816.59;;;34.19;46.71
57900;BME280;60605;53.716;19.940;2022-07-19T07:27:22;100815.96;;;34.73;45.02
57900;BME280;60605;53.716;19.940;2022-07-19T07:32:26;100812.91;;;36.49;42.66
57900;BME280;60605;53.716;19.940;2022-07-19T07:37:30;100811.75;;;38.29;39.11
57900;BME280;60605;53.716;19.940;2022-07-19T07:42:33;100805.38;;;39.81;34.36
57900;BME280;60605;53.716;19.940;2022-07-19T07:47:37;100806.41;;;40.62;32.48
57900;BME280;60605;53.716;19.940;2022-07-19T07:52:40;60485.01;;;-26.65;17.41
57900;BME280;60605;53.716;19.940;2022-07-19T07:57:44;80643.55;;;7.47;23.23
57900;BME280;60605;53.716;19.940;2022-07-19T08:02:47;100801.00;;;41.99;28.18
57900;BME280;60605;53.716;19.940;2022-07-19T08:07:53;100801.60;;;42.57;27.27
57900;BME280;60605;53.716;19.940;2022-07-19T08:12:57;100801.82;;;42.98;25.27
57900;BME280;60605;53.716;19.940;2022-07-19T08:18:09;100801.27;;;43.21;24.98
57900;BME280;60605;53.716;19.940;2022-07-19T08:23:13;100801.80;;;43.48;24.42
57900;BME280;60605;53.716;19.940;2022-07-19T08:28:17;100805.02;;;43.75;24.58
57900;BME280;60605;53.716;19.940;2022-07-19T08:33:20;100793.96;;;44.19;24.16
57900;BME280;60605;53.716;19.940;2022-07-19T08:38:23;100790.44;;;44.48;23.46
57900;BME280;60605;53.716;19.940;2022-07-19T08:43:27;100785.49;;;44.54;22.53
57900;BME280;60605;53.716;19.940;2022-07-19T08:48:36;100782.45;;;44.58;22.68
57900;BME280;60605;53.716;19.940;2022-07-19T08:53:49;100783.10;;;44.78;22.53
57900;BME280;60605;53.716;19.940;2022-07-19T08:58:53;100784.75;;;44.93;22.46
57900;BME280;60605;53.716;19.940;2022-07-19T09:04:07;100785.58;;;45.00;22.01
57900;BME280;60605;53.716;19.940;2022-07-19T09:09:13;100777.85;;;44.74;22.05
57900;BME280;60605;53.716;19.940;2022-07-19T09:14:23;100770.92;;;44.42;21.85
57900;BME280;60605;53.716;19.940;2022-07-19T09:19:34;100772.69;;;44.21;22.58
57900;BME280;60605;53.716;19.940;2022-07-19T09:24:43;100770.04;;;44.06;22.58
57900;BME280;60605;53.716;19.940;2022-07-19T09:29:49;100763.75;;;43.64;22.72
57900;BME280;60605;53.716;19.940;2022-07-19T09:35:00;100762.91;;;43.41;23.33
57900;BME280;60605;53.716;19.940;2022-07-19T09:40:07;100758.02;;;43.20;23.61
57900;BME280;60605;53.716;19.940;2022-07-19T09:45:16;100751.41;;;42.27;23.48
57900;BME280;60605;53.716;19.940;2022-07-19T09:50:23;100741.77;;;40.22;25.43
57900;BME280;60605;53.716;19.940;2022-07-19T09:55:27;100744.56;;;38.05;27.98
57900;BME280;60605;53.716;19.940;2022-07-19T10:00:30;100742.77;;;36.53;29.09
57900;BME280;60605;53.716;19.940;2022-07-19T10:05:34;100737.84;;;35.79;30.72
57900;BME280;60605;53.716;19.940;2022-07-19T10:10:39;100733.30;;;35.42;31.18
57900;BME280;60605;53.716;19.940;2022-07-19T10:15:44;100728.32;;;34.82;32.15
57900;BME280;60605;53.716;19.940;2022-07-19T10:20:51;100720.31;;;34.16;33.20
57900;BME280;60605;53.716;19.940;2022-07-19T10:25:55;100715.55;;;33.62;34.00
57900;BME280;60605;53.716;19.940;2022-07-19T10:30:59;100716.89;;;33.21;34.52
57900;BME280;60605;53.716;19.940;2022-07-19T10:42:04;100705.42;;;32.64;35.04
57900;BME280;60605;53.716;19.940;2022-07-19T10:47:08;100704.92;;;32.45;36.10
57900;BME280;60605;53.716;19.940;2022-07-19T10:57:37;100703.94;;;32.23;36.61
57900;BME280;60605;53.716;19.940;2022-07-19T11:02:41;100697.70;;;32.00;35.81
57900;BME280;60605;53.716;19.940;2022-07-19T11:07:48;100692.61;;;31.73;36.72
57900;BME280;60605;53.716;19.940;2022-07-19T11:12:54;100689.34;;;31.61;37.89
57900;BME280;60605;53.716;19.940;2022-07-19T11:18:03;100692.90;;;31.54;38.34
57900;BME280;60605;53.716;19.940;2022-07-19T11:23:07;100695.73;;;31.43;38.56
57900;BME280;60605;53.716;19.940;2022-07-19T11:28:24;100682.23;;;31.37;38.59
57900;BME280;60605;53.716;19.940;2022-07-19T11:33:27;100684.77;;;31.45;38.58
57900;BME280;60605;53.716;19.940;2022-07-19T11:38:45;100691.09;;;31.44;38.78
57900;BME280;60605;53.716;19.940;2022-07-19T11:48:59;100679.40;;;31.40;39.02
57900;BME280;60605;53.716;19.940;2022-07-19T11:54:05;100678.07;;;31.45;38.17
57900;BME280;60605;53.716;19.940;2022-07-19T11:59:09;100676.95;;;31.44;37.29
57900;BME280;60605;53.716;19.940;2022-07-19T12:04:13;100674.45;;;31.41;37.27
57900;BME280;60605;53.716;19.940;2022-07-19T12:09:25;100674.24;;;31.28;37.10
57900;BME280;60605;53.716;19.940;2022-07-19T12:14:32;100682.92;;;31.20;37.75
57900;BME280;60605;53.716;19.940;2022-07-19T12:19:40;100677.11;;;31.13;38.38
57900;BME280;60605;53.716;19.940;2022-07-19T12:24:51;100675.55;;;31.10;38.54
57900;BME280;60605;53.716;19.940;2022-07-19T12:30:04;100674.27;;;31.08;38.44
57900;BME280;60605;53.716;19.940;2022-07-19T12:35:11;100674.45;;;31.11;38.43
57900;BME280;60605;53.716;19.940;2022-07-19T12:40:23;100672.02;;;31.04;38.21
57900;BME280;60605;53.716;19.940;2022-07-19T12:45:33;100663.92;;;31.03;38.56
57900;BME280;60605;53.716;19.940;2022-07-19T12:50:48;100661.43;;;31.05;38.17
57900;BME280;60605;53.716;19.940;2022-07-19T12:55:52;100663.48;;;31.04;37.89
57900;BME280;60605;53.716;19.940;2022-07-19T13:00:55;100661.37;;;31.08;37.31
57900;BME280;60605;53.716;19.940;2022-07-19T13:06:00;100657.39;;;31.24;38.01
57900;BME280;60605;53.716;19.940;2022-07-19T13:11:04;100660.06;;;31.32;37.43
57900;BME280;60605;53.716;19.940;2022-07-19T13:16:08;100661.05;;;31.37;37.26
57900;BME280;60605;53.716;19.940;2022-07-19T13:21:12;100659.71;;;31.40;36.38
57900;BME280;60605;53.716;19.940;2022-07-19T13:26:15;100660.77;;;31.43;37.00
57900;BME280;60605;53.716;19.940;2022-07-19T13:31:19;100664.14;;;31.46;37.07
57900;BME280;60605;53.716;19.940;2022-07-19T13:36:23;100662.23;;;31.39;37.35
57900;BME280;60605;53.716;19.940;2022-07-19T13:41:26;100663.70;;;31.22;37.02
57900;BME280;60605;53.716;19.940;2022-07-19T13:46:30;100664.42;;;31.11;36.63
57900;BME280;60605;53.716;19.940;2022-07-19T13:51:34;100666.47;;;30.89;36.11
57900;BME280;60605;53.716;19.940;2022-07-19T13:56:38;100659.89;;;30.70;36.12
57900;BME280;60605;53.716;19.940;2022-07-19T14:01:41;100659.80;;;30.60;37.47
57900;BME280;60605;53.716;19.940;2022-07-19T14:06:48;100655.52;;;30.49;38.28
57900;BME280;60605;53.716;19.940;2022-07-19T14:11:51;100654.70;;;30.30;37.77
57900;BME280;60605;53.716;19.940;2022-07-19T14:16:55;100654.35;;;30.17;38.51
57900;BME280;60605;53.716;19.940;2022-07-19T14:21:59;100652.62;;;30.11;38.85
57900;BME280;60605;53.716;19.940;2022-07-19T14:27:02;100650.87;;;30.06;39.51
57900;BME280;60605;53.716;19.940;2022-07-19T14:32:06;100656.21;;;29.99;39.52
57900;BME280;60605;53.716;19.940;2022-07-19T14:37:10;100656.67;;;29.92;38.89
57900;BME280;60605;53.716;19.940;2022-07-19T14:42:14;100654.84;;;29.79;38.40
57900;BME280;60605;53.716;19.940;2022-07-19T14:47:19;100652.54;;;29.65;38.67
57900;BME280;60605;53.716;19.940;2022-07-19T14:52:23;100655.42;;;29.51;39.28
57900;BME280;60605;53.716;19.940;2022-07-19T14:57:29;100657.66;;;29.45;39.47
57900;BME280;60605;53.716;19.940;2022-07-19T15:02:32;100658.21;;;29.39;39.89
57900;BME280;60605;53.716;19.940;2022-07-19T15:07:36;100663.70;;;29.35;39.81
57900;BME280;60605;53.716;19.940;2022-07-19T15:12:40;100662.89;;;29.28;40.00
57900;BME280;60605;53.716;19.940;2022-07-19T15:17:45;100666.88;;;29.22;40.50
57900;BME280;60605;53.716;19.940;2022-07-19T15:22:48;100670.42;;;29.17;40.92
57900;BME280;60605;53.716;19.940;2022-07-19T15:27:53;100663.52;;;29.10;41.26
57900;BME280;60605;53.716;19.940;2022-07-19T15:32:56;100660.85;;;28.98;41.07
57900;BME280;60605;53.716;19.940;2022-07-19T15:38:00;100663.17;;;28.91;41.81
57900;BME280;60605;53.716;19.940;2022-07-19T15:43:03;100663.27;;;28.81;41.45
57900;BME280;60605;53.716;19.940;2022-07-19T15:48:07;100664.64;;;28.72;42.18
57900;BME280;60605;53.716;19.940;2022-07-19T15:53:11;100663.31;;;28.67;42.05
57900;BME280;60605;53.716;19.940;2022-07-19T15:58:15;100668.20;;;28.59;42.21
57900;BME280;60605;53.716;19.940;2022-07-19T16:03:20;100666.11;;;28.50;42.27
57900;BME280;60605;53.716;19.940;2022-07-19T16:08:23;100661.59;;;28.39;42.39
57900;BME280;60605;53.716;19.940;2022-07-19T16:13:28;100658.45;;;28.27;42.66
57900;BME280;60605;53.716;19.940;2022-07-19T16:18:32;100662.09;;;28.18;43.10
57900;BME280;60605;53.716;19.940;2022-07-19T16:23:35;100666.61;;;28.09;43.29
57900;BME280;60605;53.716;19.940;2022-07-19T16:28:39;100671.39;;;28.04;43.69
57900;BME280;60605;53.716;19.940;2022-07-19T16:33:43;100681.42;;;28.00;44.19
57900;BME280;60605;53.716;19.940;2022-07-19T16:38:47;100687.70;;;27.87;44.42
57900;BME280;60605;53.716;19.940;2022-07-19T16:44:05;100682.98;;;27.71;45.35
57900;BME280;60605;53.716;19.940;2022-07-19T16:49:09;100689.94;;;27.54;46.34
57900;BME280;60605;53.716;19.940;2022-07-19T16:54:13;100693.30;;;27.39;46.92
57900;BME280;60605;53.716;19.940;2022-07-19T16:59:16;100696.00;;;27.26;47.89
57900;BME280;60605;53.716;19.940;2022-07-19T17:04:20;100695.02;;;27.11;48.37
57900;BME280;60605;53.716;19.940;2022-07-19T17:09:24;100695.92;;;26.97;49.66
57900;BME280;60605;53.716;19.940;2022-07-19T17:14:27;100704.61;;;26.79;50.71
57900;BME280;60605;53.716;19.940;2022-07-19T17:19:30;100710.69;;;26.61;51.76
57900;BME280;60605;53.716;19.940;2022-07-19T17:24:34;100714.93;;;26.42;52.29
57900;BME280;60605;53.716;19.940;2022-07-19T17:29:44;100720.98;;;26.23;52.84
57900;BME280;60605;53.716;19.940;2022-07-19T17:34:47;100729.95;;;26.04;53.33
57900;BME280;60605;53.716;19.940;2022-07-19T17:39:50;100733.67;;;25.80;53.23
57900;BME280;60605;53.716;19.940;2022-07-19T17:44:54;100734.11;;;25.54;53.32
57900;BME280;60605;53.716;19.940;2022-07-19T17:49:58;100736.35;;;25.28;53.72
57900;BME280;60605;53.716;19.940;2022-07-19T17:55:02;100739.69;;;25.03;54.56
57900;BME280;60605;53.716;19.940;2022-07-19T18:00:09;100741.80;;;24.80;55.29
57900;BME280;60605;53.716;19.940;2022-07-19T18:05:13;100748.63;;;24.58;55.79
57900;BME280;60605;53.716;19.940;2022-07-19T18:10:17;100747.02;;;24.35;55.96
57900;BME280;60605;53.716;19.940;2022-07-19T18:15:21;100756.05;;;24.14;56.07
57900;BME280;60605;53.716;19.940;2022-07-19T18:20:24;100755.50;;;23.93;56.25
57900;BME280;60605;53.716;19.940;2022-07-19T18:25:27;100757.69;;;23.72;56.54
57900;BME280;60605;53.716;19.940;2022-07-19T18:30:31;100757.52;;;23.50;57.18
57900;BME280;60605;53.716;19.940;2022-07-19T18:35:36;100758.16;;;23.26;57.64
57900;BME280;60605;53.716;19.940;2022-07-19T18:40:40;100760.48;;;23.02;57.79
57900;BME280;60605;53.716;19.940;2022-07-19T18:45:43;100766.48;;;22.77;57.68
57900;BME280;60605;53.716;19.940;2022-07-19T18:50:47;100768.11;;;22.53;57.63
57900;BME280;60605;53.716;19.940;2022-07-19T18:55:51;100784.16;;;22.28;57.45
57900;BME280;60605;53.716;19.940;2022-07-19T19:00:55;100784.07;;;22.02;57.65
57900;BME280;60605;53.716;19.940;2022-07-19T19:06:02;100783.31;;;21.76;58.02
57900;BME280;60605;53.716;19.940;2022-07-19T19:11:07;100782.95;;;21.50;58.32
57900;BME280;60605;53.716;19.940;2022-07-19T19:16:12;100789.06;;;21.27;58.67
57900;BME280;60605;53.716;19.940;2022-07-19T19:21:15;100789.58;;;21.03;59.32
57900;BME280;60605;53.716;19.940;2022-07-19T19:26:21;100798.24;;;20.80;60.23
57900;BME280;60605;53.716;19.940;2022-07-19T19:31:28;100796.87;;;20.57;61.31
57900;BME280;60605;53.716;19.940;2022-07-19T19:36:32;100794.23;;;20.35;62.44
57900;BME280;60605;53.716;19.940;2022-07-19T19:41:37;100799.84;;;20.15;63.17
57900;BME280;60605;53.716;19.940;2022-07-19T19:46:43;100805.84;;;19.97;64.18
57900;BME280;60605;53.716;19.940;2022-07-19T19:51:48;100807.54;;;19.83;65.09
57900;BME280;60605;53.716;19.940;2022-07-19T19:56:52;100807.83;;;19.64;66.00
57900;BME280;60605;53.716;19.940;2022-07-19T20:01:57;100809.07;;;19.44;66.69
57900;BME280;60605;53.716;19.940;2022-07-19T20:07:03;100808.23;;;19.22;67.49
57900;BME280;60605;53.716;19.940;2022-07-19T20:12:07;100809.33;;;19.03;68.31
57900;BME280;60605;53.716;19.940;2022-07-19T20:17:10;100807.75;;;18.86;69.34
57900;BME280;60605;53.716;19.940;2022-07-19T20:22:16;100808.42;;;18.67;70.34
57900;BME280;60605;53.716;19.940;2022-07-19T20:27:20;100810.14;;;18.47;71.00
57900;BME280;60605;53.716;19.940;2022-07-19T20:32:25;100815.55;;;18.29;71.46
57900;BME280;60605;53.716;19.940;2022-07-19T20:37:29;100819.11;;;18.12;72.35
57900;BME280;60605;53.716;19.940;2022-07-19T20:42:33;100826.11;;;17.96;73.08
57900;BME280;60605;53.716;19.940;2022-07-19T20:47:40;100832.00;;;17.81;73.83
57900;BME280;60605;53.716;19.940;2022-07-19T20:52:43;100832.18;;;17.66;74.64
57900;BME280;60605;53.716;19.940;2022-07-19T20:57:50;100833.88;;;17.52;75.20
57900;BME280;60605;53.716;19.940;2022-07-19T21:02:53;100831.20;;;17.39;75.90
57900;BME280;60605;53.716;19.940;2022-07-19T21:08:00;100832.75;;;17.28;76.66
57900;BME280;60605;53.716;19.940;2022-07-19T21:13:03;100835.93;;;17.16;77.20
57900;BME280;60605;53.716;19.940;2022-07-19T21:18:07;100836.50;;;17.06;77.77
57900;BME280;60605;53.716;19.940;2022-07-19T21:23:11;100848.46;;;16.95;78.18
57900;BME280;60605;53.716;19.940;2022-07-19T21:28:14;100847.70;;;16.81;78.64
57900;BME280;60605;53.716;19.940;2022-07-19T21:33:18;100843.09;;;16.70;79.25
57900;BME280;60605;53.716;19.940;2022-07-19T21:38:21;100842.71;;;16.59;79.69
57900;BME280;60605;53.716;19.940;2022-07-19T21:43:25;100840.52;;;16.51;80.51
57900;BME280;60605;53.716;19.940;2022-07-19T21:48:29;100840.45;;;16.45;81.35
57900;BME280;60605;53.716;19.940;2022-07-19T21:53:32;100836.83;;;16.44;82.19
57900;BME280;60605;53.716;19.940;2022-07-19T21:58:36;100841.04;;;16.41;82.08
57900;BME280;60605;53.716;19.940;2022-07-19T22:03:40;100837.08;;;16.35;82.28
57900;BME280;60605;53.716;19.940;2022-07-19T22:08:44;100835.93;;;16.26;82.56
57900;BME280;60605;53.716;19.940;2022-07-19T22:13:47;100831.61;;;16.15;82.81
57900;BME280;60605;53.716;19.940;2022-07-19T22:18:51;100835.01;;;16.06;83.71
57900;BME280;60605;53.716;19.940;2022-07-19T22:24:03;100839.30;;;15.97;84.38
57900;BME280;60605;53.716;19.940;2022-07-19T22:29:06;100838.06;;;15.91;84.88
57900;BME280;60605;53.716;19.940;2022-07-19T22:34:12;100846.37;;;15.83;85.12
57900;BME280;60605;53.716;19.940;2022-07-19T22:39:16;100854.48;;;15.74;85.47
57900;BME280;60605;53.716;19.940;2022-07-19T22:44:19;100866.81;;;15.66;85.82
57900;BME280;60605;53.716;19.940;2022-07-19T22:49:22;100865.64;;;15.57;86.25
57900;BME280;60605;53.716;19.940;2022-07-19T22:54:26;100861.56;;;15.48;86.73
57900;BME280;60605;53.716;19.940;2022-07-19T22:59:29;100865.91;;;15.42;86.97
57900;BME280;60605;53.716;19.940;2022-07-19T23:04:32;100868.48;;;15.33;87.19
57900;BME280;60605;53.716;19.940;2022-07-19T23:09:36;100870.36;;;15.26;87.93
57900;BME280;60605;53.716;19.940;2022-07-19T23:14:40;100869.61;;;15.20;88.43
57900;BME280;60605;53.716;19.940;2022-07-19T23:19:43;100866.80;;;15.14;88.82
57900;BME280;60605;53.716;19.940;2022-07-19T23:24:47;100867.83;;;15.13;89.93
57900;BME280;60605;53.716;19.940;2022-07-19T23:29:50;100867.48;;;15.13;90.17
57900;BME280;60605;53.716;19.940;2022-07-19T23:34:54;100873.89;;;15.10;90.02
57900;BME280;60605;53.716;19.940;2022-07-19T23:39:57;100877.92;;;15.05;90.19
57900;BME280;60605;53.716;19.940;2022-07-19T23:45:01;100883.34;;;15.00;91.03
57900;BME280;60605;53.716;19.940;2022-07-19T23:50:05;100886.17;;;15.00;91.76
57900;BME280;60605;53.716;19.940;2022-07-19T23:55:09;100881.29;;;15.00;92.01
